CheckWX is a tool to help pilots better visualize weather data.  It is not intended as a substitute for an official pre-flight weather briefing.

04:42:48 UTC

EGTC METAR
Cranfield Airport
Cranfield, United Kingdom
Current

12 hours ago

EGTC 221620Z 24011KT 210V180 9999 SCT036 21/14 Q1023
Observed
Aug-22 @ 16:20 UTC
Wind
  • 240° at 11 KTS
Visibility
10,000+ meters
Flight Rules
VFR
Cloud Levels
  • Scattered at 3,600' AGL
Temperature
21°C / 70°F
Dewpoint
14°C / 57°F
Humidity
64%
Altimeter
30.21" Hg
Pressure
1022.92 hPa
Previous

13 hours ago

EGTC 221550Z 23010G20KT 9999 SCT036 21/13 Q1023
Observed
Aug-22 @ 15:50 UTC
Wind
  • 230° at 10 KTS
  • Gusting to 20 KTS
Visibility
10,000+ meters
Flight Rules
VFR
Cloud Levels
  • Scattered at 3,600' AGL
Temperature
21°C / 70°F
Dewpoint
13°C / 55°F
Humidity
60%
Altimeter
30.21" Hg
Pressure
1022.92 hPa
Previous

14 hours ago

EGTC 221450Z 22014KT 200V260 9999 SCT038 22/14 Q1023
Observed
Aug-22 @ 14:50 UTC
Wind
  • 220° at 14 KTS
Visibility
10,000+ meters
Flight Rules
VFR
Cloud Levels
  • Scattered at 3,800' AGL
Temperature
22°C / 72°F
Dewpoint
14°C / 57°F
Humidity
61%
Altimeter
30.21" Hg
Pressure
1022.92 hPa